Time Latitude Longitude Accuracy (66% radius in meters) Altitude (meters) Speed (km/hour) Bearing (degrees) Battery (%) GPS flag
10:08:11 53.015799 36.158972 82 237.80000305176 0 0 65 1 delete
10:07:51 53.015799 36.158972 11 237.80000305176 0 0 65 1 delete
10:07:40 53.015799 36.158972 7 237.80000305176 0 0 65 1 delete
10:07:28 53.015799 36.158972 4 237.80000305176 0 0 65 1 delete
10:07:16 53.015804 36.158974 3 237.80000305176 0 0 65 1 delete
10:07:03 53.015835 36.159071 4 239.89999389648 0 0 65 1 delete
10:07:01 53.015817 36.159088 4 239.19999694824 0.75 266.29998779297 65 1 delete
10:06:51 53.015814 36.159178 3 241.30000305176 0 0 65 1 delete
10:06:39 53.015817 36.159186 3 241.30000305176 0 0 65 1 delete
10:06:27 53.015817 36.159185 3 241.30000305176 0 0 65 1 delete
10:06:16 53.015797 36.159166 4 240.60000610352 2 259.39999389648 65 1 delete
10:06:14 53.015801 36.159235 4 239.39999389648 2.75 259.60000610352 65 1 delete
10:06:08 53.015808 36.159389 4 241.39999389648 3.25 296.10000610352 65 1 delete
10:06:05 53.015758 36.159526 3 240.30000305176 2.75 299.29998779297 65 1 delete
10:06:03 53.015728 36.159581 3 239.5 1.75 300.89999389648 65 1 delete
10:06:01 53.015686 36.159642 3 237.69999694824 4.25 312.5 65 1 delete
10:05:59 53.015622 36.159768 4 236.5 5.75 314.70001220703 65 1 delete
10:05:57 53.015546 36.159885 4 237.10000610352 6 317.60000610352 65 1 delete
10:05:55 53.015477 36.160004 4 236.80000305176 5.5 328.29998779297 65 1 delete
10:05:52 53.015348 36.160126 3 236.80000305176 4.5 352 65 1 delete
10:05:49 53.015220 36.160084 4 238.39999389648 4.25 30.700000762939 65 1 delete
10:05:46 53.015127 36.159967 4 242.60000610352 3.25 33.599998474121 65 1 delete
10:05:40 53.015087 36.159926 3 242.10000610352 0 0 65 1 delete
10:05:27 53.015073 36.159926 4 241.69999694824 0.5 53.200000762939 65 1 delete
10:05:23 53.015047 36.159892 4 241.19999694824 3.25 48.299999237061 65 1 delete
10:05:20 53.014963 36.159766 3 241.69999694824 6 40.5 65 1 delete
10:05:18 53.014869 36.159639 4 241.80000305176 8.5 38.900001525879 65 1 delete
10:05:16 53.014748 36.159467 4 241.80000305176 10.75 40.799999237061 65 1 delete
10:05:15 53.014677 36.159362 4 241.89999389648 12 40.799999237061 65 1 delete
10:05:14 53.014598 36.159248 4 241.89999389648 13.25 41.900001525879 65 1 delete
10:05:13 53.014510 36.159121 4 241.89999389648 14.25 42.799999237061 65 1 delete
10:05:12 53.014418 36.158974 3 242.39999389648 14.75 41.599998474121 65 1 delete
10:05:11 53.014322 36.158830 4 242.69999694824 14.5 41.099998474121 65 1 delete
10:05:10 53.014225 36.158687 3 242.30000305176 14.5 41.599998474121 65 1 delete
10:05:09 53.014122 36.158538 3 242 14.75 41.700000762939 65 1 delete
10:05:08 53.014024 36.158391 4 241.69999694824 14.75 40.799999237061 65 1 delete
10:05:07 53.013920 36.158252 4 241.19999694824 14.75 40.599998474121 65 1 delete
10:05:06 53.013818 36.158115 3 241.10000610352 14.75 41.5 65 1 delete
10:05:05 53.013721 36.157977 5 241.39999389648 15 40.700000762939 65 1 delete
10:05:04 53.013619 36.157831 5 241.39999389648 15 41.700000762939 65 1 delete
10:05:03 53.013519 36.157682 4 241.39999389648 15 41.900001525879 65 1 delete
10:05:02 53.013418 36.157532 3 241.30000305176 15 41.700000762939 65 1 delete
10:05:01 53.013315 36.157391 3 240.89999389648 15 42.299999237061 65 1 delete
10:05:00 53.013214 36.157244 4 240.60000610352 14.75 42.299999237061 65 1 delete
10:04:59 53.013117 36.157100 4 240.60000610352 14.5 42.700000762939 65 1 delete
10:04:58 53.013018 36.156953 3 240.69999694824 14.5 42 65 1 delete
10:04:57 53.012920 36.156814 3 239.69999694824 14 42.200000762939 65 1 delete
10:04:55 53.012730 36.156528 4 239.19999694824 12.5 38.700000762939 65 1 delete
10:04:54 53.012639 36.156407 4 238.80000305176 12.25 41.799999237061 65 1 delete
10:04:53 53.012555 36.156283 4 238.60000610352 11.5 42 65 1 delete